createdAt,value
2022-09-14T00:01:08.265Z,1.60
2022-09-14T00:03:37.157Z,1.73
2022-09-14T00:06:04.819Z,1.80
2022-09-14T00:08:31.256Z,1.40
2022-09-14T00:10:57.770Z,2.00
2022-09-14T00:13:24.241Z,1.47
2022-09-14T00:15:52.078Z,1.60
2022-09-14T00:18:18.540Z,2.10
2022-09-14T00:20:44.986Z,1.60
2022-09-14T00:23:11.429Z,1.97
2022-09-14T00:25:37.899Z,1.70
2022-09-14T00:28:04.332Z,1.70
2022-09-14T00:30:30.813Z,1.70
2022-09-14T00:32:57.321Z,1.77
2022-09-14T00:35:23.774Z,2.20
2022-09-14T00:37:51.227Z,1.70
2022-09-14T00:40:19.238Z,2.10
2022-09-14T00:42:45.794Z,1.83
2022-09-14T00:45:22.007Z,1.67
2022-09-14T00:47:50.528Z,2.10
2022-09-14T00:50:17.505Z,1.93
2022-09-14T00:52:46.167Z,1.60
2022-09-14T00:55:14.560Z,1.60
2022-09-14T00:57:46.677Z,1.90
2022-09-14T01:00:14.854Z,1.97
2022-09-14T01:02:41.411Z,1.73
2022-09-14T01:05:09.183Z,1.90
2022-09-14T01:07:49.829Z,2.00
2022-09-14T01:10:16.232Z,2.00
2022-09-14T01:12:54.971Z,1.50
2022-09-14T01:15:24.445Z,1.73
2022-09-14T01:17:56.896Z,1.93
2022-09-14T01:20:29.387Z,1.90
2022-09-14T01:23:03.829Z,1.93
2022-09-14T01:25:30.273Z,1.97
2022-09-14T01:28:00.478Z,1.90
2022-09-14T01:30:28.556Z,1.80
2022-09-14T01:32:54.995Z,1.87
2022-09-14T01:35:30.281Z,2.10
2022-09-14T01:38:20.420Z,2.17
2022-09-14T01:40:49.317Z,1.60
2022-09-14T01:43:18.503Z,1.97
2022-09-14T01:45:50.305Z,1.93
2022-09-14T01:48:18.388Z,2.07
2022-09-14T01:50:48.521Z,2.13
2022-09-14T01:53:22.451Z,2.20
2022-09-14T01:55:52.383Z,1.70
2022-09-14T01:58:23.962Z,1.90
2022-09-14T02:00:51.590Z,1.93
2022-09-14T02:03:29.280Z,1.60
2022-09-14T02:06:05.077Z,1.93
2022-09-14T02:08:31.838Z,2.03
2022-09-14T02:10:58.627Z,2.10
2022-09-14T02:13:25.479Z,1.93
2022-09-14T03:11:59.242Z,1.70
2022-09-14T03:14:25.705Z,1.67
2022-09-14T03:16:52.135Z,1.60
2022-09-14T03:19:18.581Z,1.97
2022-09-14T03:21:45.073Z,1.80
2022-09-14T03:24:11.513Z,1.80
2022-09-14T03:26:38.701Z,1.97
2022-09-14T03:29:06.170Z,1.60
2022-09-14T03:31:32.766Z,1.97
2022-09-14T03:34:00.256Z,1.83
2022-09-14T03:36:28.203Z,2.20
2022-09-14T03:38:56.047Z,2.00
2022-09-14T03:41:22.874Z,2.37
2022-09-14T03:43:49.603Z,1.97
2022-09-14T03:46:21.507Z,2.10
2022-09-14T03:48:48.477Z,2.20
2022-09-14T03:51:15.022Z,2.40
2022-09-14T03:53:41.916Z,2.17
2022-09-14T03:56:09.271Z,2.10
2022-09-14T03:58:35.704Z,2.03
2022-09-14T04:01:09.675Z,2.33
2022-09-14T04:03:36.474Z,2.10
2022-09-14T04:06:05.429Z,1.90
2022-09-14T04:08:33.487Z,1.70
2022-09-14T04:10:59.994Z,2.40
2022-09-14T04:13:26.534Z,2.00
2022-09-14T04:16:00.098Z,2.00
2022-09-14T04:18:27.224Z,2.17
2022-09-14T04:20:57.493Z,2.13
2022-09-14T04:23:24.466Z,2.17
2022-09-14T04:25:51.417Z,2.30
2022-09-14T04:28:20.607Z,2.90
2022-09-14T04:31:00.595Z,3.03
2022-09-14T04:33:29.846Z,1.86
2022-09-14T04:36:01.911Z,2.03
2022-09-14T04:40:55.026Z,2.23
2022-09-14T04:43:21.482Z,2.43
2022-09-14T04:45:47.936Z,2.13
2022-09-14T04:48:14.558Z,2.47
2022-09-14T04:50:41.044Z,2.77
2022-09-14T04:53:07.512Z,2.47
2022-09-14T04:55:33.969Z,2.07
2022-09-14T04:58:00.411Z,1.90
2022-09-14T05:00:26.981Z,2.17
2022-09-14T05:02:53.466Z,2.23
2022-09-14T05:05:19.992Z,2.10
2022-09-14T05:07:46.441Z,2.00
2022-09-14T05:10:13.008Z,2.30
2022-09-14T05:12:39.450Z,1.90
2022-09-14T05:15:06.314Z,1.77
2022-09-14T05:17:35.865Z,1.93
2022-09-14T05:20:02.519Z,2.60
2022-09-14T05:22:28.957Z,2.93
2022-09-14T05:24:55.386Z,3.20
2022-09-14T05:27:21.854Z,2.63
2022-09-14T05:29:48.357Z,3.00
2022-09-14T05:32:14.771Z,2.73
2022-09-14T05:34:41.306Z,2.67
2022-09-14T05:37:07.737Z,3.30
2022-09-14T05:39:34.171Z,2.87
2022-09-14T05:42:00.628Z,2.77
2022-09-14T05:44:27.056Z,2.80
2022-09-14T05:46:53.544Z,2.93
2022-09-14T05:49:20.104Z,3.30
2022-09-14T05:51:46.536Z,2.90
2022-09-14T05:54:13.016Z,3.23
2022-09-14T05:56:39.512Z,2.70
2022-09-14T05:59:06.051Z,3.33
2022-09-14T06:01:33.083Z,2.97
2022-09-14T06:04:00.541Z,2.30
2022-09-14T06:06:27.020Z,3.03
2022-09-14T06:08:55.105Z,2.90
2022-09-14T06:11:22.914Z,3.13
2022-09-14T06:13:50.004Z,3.13
2022-09-14T06:16:17.487Z,3.13
2022-09-14T06:18:44.410Z,2.83
2022-09-14T06:21:12.251Z,3.13
2022-09-14T06:23:38.689Z,2.30
2022-09-14T06:26:05.350Z,2.30
2022-09-14T06:28:32.183Z,2.23
2022-09-14T06:30:58.978Z,2.50
2022-09-14T06:33:25.857Z,2.23
2022-09-14T06:35:59.246Z,1.97
2022-09-14T06:38:26.438Z,2.17
2022-09-14T06:40:53.782Z,2.10
2022-09-14T06:43:20.250Z,1.60
2022-09-14T06:45:59.114Z,2.34
2022-09-14T06:48:26.294Z,2.20
2022-09-14T06:50:52.755Z,1.87
2022-09-14T06:53:19.222Z,2.17
2022-09-14T06:55:45.943Z,2.00
2022-09-14T06:58:12.443Z,2.30
2022-09-14T07:00:38.955Z,1.73
2022-09-14T07:03:05.550Z,1.70
2022-09-14T07:05:32.354Z,1.70
2022-09-14T07:08:02.114Z,2.10
2022-09-14T07:10:28.617Z,2.67
2022-09-14T07:12:55.263Z,1.73
2022-09-14T07:15:22.161Z,1.53
2022-09-14T07:17:48.641Z,1.70
2022-09-14T07:20:15.726Z,1.77
2022-09-14T07:22:42.535Z,2.00
2022-09-14T07:25:09.842Z,1.57
2022-09-14T07:27:38.715Z,1.37
2022-09-14T07:30:06.405Z,1.50
2022-09-14T07:32:32.831Z,1.40
2022-09-14T07:34:59.303Z,1.37
2022-09-14T07:37:25.771Z,1.20
2022-09-14T07:39:52.244Z,1.27
2022-09-14T07:42:18.702Z,1.40
2022-09-14T07:44:45.157Z,1.60
2022-09-14T07:47:11.687Z,1.50
2022-09-14T07:49:38.208Z,1.50
2022-09-14T07:52:04.701Z,1.50
2022-09-14T07:54:31.155Z,1.10
2022-09-14T07:56:57.616Z,1.33
2022-09-14T07:59:35.754Z,1.60
2022-09-14T08:02:02.911Z,1.20
2022-09-14T08:04:29.523Z,1.33
2022-09-14T08:06:56.375Z,1.30
2022-09-14T08:09:22.847Z,1.30
2022-09-14T08:11:49.687Z,1.40
2022-09-14T08:14:16.156Z,1.50
2022-09-14T08:16:42.830Z,1.63
2022-09-14T08:19:13.698Z,1.17
2022-09-14T08:21:45.612Z,1.40
2022-09-14T08:24:13.680Z,1.60
2022-09-14T08:26:42.808Z,1.53
2022-09-14T08:29:09.238Z,1.57
2022-09-14T08:31:36.927Z,1.33
2022-09-14T08:34:03.983Z,1.40
2022-09-14T08:36:31.923Z,1.20
2022-09-14T08:38:58.469Z,1.38
2022-09-14T08:41:24.885Z,1.30
2022-09-14T08:43:51.585Z,1.67
2022-09-14T08:46:38.912Z,1.42
2022-09-14T08:49:09.844Z,1.40
2022-09-14T08:51:36.302Z,1.38
2022-09-14T08:54:02.741Z,1.60
2022-09-14T08:56:33.757Z,1.52
2022-09-14T08:59:03.297Z,1.50
2022-09-14T09:01:38.906Z,1.60
2022-09-14T09:04:14.625Z,1.40
2022-09-14T09:06:46.288Z,1.40
2022-09-14T09:09:31.254Z,1.30
2022-09-14T09:11:58.061Z,1.60
2022-09-14T09:14:31.337Z,1.27
2022-09-14T09:16:59.865Z,1.52
2022-09-14T09:19:31.333Z,1.45
2022-09-14T09:21:58.042Z,1.50
2022-09-14T09:24:27.278Z,1.58
2022-09-14T09:26:54.024Z,1.27
2022-09-14T09:29:20.689Z,1.23
2022-09-14T09:31:51.773Z,1.20
2022-09-14T09:34:21.733Z,1.38
2022-09-14T09:36:49.468Z,1.15
2022-09-14T09:39:16.049Z,1.25
2022-09-14T09:41:45.513Z,1.33
2022-09-14T09:44:11.997Z,1.48
2022-09-14T09:46:40.042Z,1.25
2022-09-14T09:49:17.063Z,1.20
2022-09-14T09:51:44.201Z,1.40
2022-09-14T09:54:13.479Z,1.27
2022-09-14T09:56:59.575Z,1.30
2022-09-14T09:59:31.258Z,1.48
2022-09-14T10:02:17.722Z,1.48
2022-09-14T10:05:05.415Z,1.30
2022-09-14T10:07:33.549Z,1.25
2022-09-14T10:10:06.667Z,1.10
2022-09-14T10:12:33.635Z,1.23
2022-09-14T10:15:17.128Z,1.20
2022-09-14T10:17:57.116Z,1.20
2022-09-14T10:20:24.452Z,1.13
2022-09-14T10:22:51.381Z,1.00
2022-09-14T10:25:18.007Z,1.20
2022-09-14T10:27:56.642Z,1.27
2022-09-14T10:30:27.723Z,1.00
2022-09-14T10:32:57.037Z,1.13
2022-09-14T10:35:26.855Z,0.98
2022-09-14T10:37:53.847Z,1.00
2022-09-14T10:40:24.114Z,1.08
2022-09-14T10:43:23.019Z,1.10
2022-09-14T10:45:50.563Z,1.10
2022-09-14T10:48:22.966Z,1.30
2022-09-14T10:50:54.686Z,1.05
2022-09-14T10:53:21.104Z,0.90
2022-09-14T10:55:47.540Z,1.15
2022-09-14T10:58:24.292Z,0.90
2022-09-14T11:01:09.666Z,1.00
2022-09-14T11:03:48.341Z,1.10
2022-09-14T11:06:14.815Z,0.75
2022-09-14T11:08:44.297Z,1.00
2022-09-14T11:11:16.913Z,0.98
2022-09-14T11:14:06.632Z,0.75
2022-09-14T11:16:52.163Z,1.00
2022-09-14T11:19:29.950Z,0.90
2022-09-14T11:22:00.001Z,1.00
2022-09-14T11:24:40.302Z,1.08
2022-09-14T11:27:27.105Z,1.08
2022-09-14T11:30:01.549Z,0.90
2022-09-14T11:32:33.741Z,1.20
2022-09-14T11:35:11.713Z,1.00
2022-09-14T11:37:40.680Z,1.08
2022-09-14T11:40:08.076Z,1.00
2022-09-14T11:42:38.977Z,1.30
2022-09-14T11:45:07.729Z,1.20
2022-09-14T11:47:38.303Z,1.23
2022-09-14T11:50:16.677Z,1.00
2022-09-14T11:52:43.288Z,1.10
2022-09-14T11:55:11.085Z,1.17
2022-09-14T11:57:37.637Z,1.15
2022-09-14T12:00:08.064Z,0.95
2022-09-14T12:02:45.766Z,0.90
2022-09-14T12:05:12.242Z,1.10
2022-09-14T12:07:47.699Z,1.30
2022-09-14T12:10:14.309Z,1.10
2022-09-14T12:12:55.906Z,0.90
2022-09-14T12:15:33.246Z,1.15
2022-09-14T12:18:05.822Z,1.20
2022-09-14T12:20:32.318Z,1.10
2022-09-14T12:23:17.590Z,0.90
2022-09-14T12:25:55.990Z,0.90
2022-09-14T12:28:40.682Z,1.17
2022-09-14T12:31:12.780Z,0.90
2022-09-14T12:33:41.485Z,1.00
2022-09-14T12:36:12.364Z,0.98
2022-09-14T12:38:52.165Z,1.25
2022-09-14T12:41:18.655Z,1.20
2022-09-14T12:43:45.146Z,0.95
2022-09-14T12:46:31.573Z,0.90
2022-09-14T12:49:30.529Z,1.13
2022-09-14T12:51:59.291Z,0.88
2022-09-14T12:54:40.967Z,1.05
2022-09-14T12:57:15.581Z,1.02
2022-09-14T12:59:45.024Z,1.23
2022-09-14T13:02:23.740Z,1.00
2022-09-14T13:04:54.230Z,0.98
2022-09-14T13:07:21.657Z,0.90
2022-09-14T13:09:52.461Z,1.25
2022-09-14T13:12:24.058Z,1.40
2022-09-14T13:14:55.403Z,0.93
2022-09-14T13:17:22.966Z,1.17
2022-09-14T13:19:56.425Z,1.00
2022-09-14T13:22:24.425Z,1.00
2022-09-14T13:24:51.530Z,1.13
2022-09-14T13:27:23.098Z,1.10
2022-09-14T13:29:57.490Z,1.20
2022-09-14T13:32:23.970Z,1.25
2022-09-14T13:34:50.583Z,1.00
2022-09-14T13:37:17.252Z,1.00
2022-09-14T13:39:50.907Z,1.10
2022-09-14T13:42:17.790Z,1.00
2022-09-14T13:44:49.693Z,1.00
2022-09-14T13:47:17.885Z,0.80
2022-09-14T13:49:45.141Z,0.90
2022-09-14T13:52:34.039Z,1.08
2022-09-14T13:55:14.371Z,1.13
2022-09-14T13:58:00.736Z,1.20
2022-09-14T14:00:27.171Z,1.10
2022-09-14T14:02:54.434Z,1.30
2022-09-14T14:05:22.526Z,1.20
2022-09-14T14:07:48.955Z,1.67
2022-09-14T14:10:27.075Z,1.15
2022-09-14T14:12:53.812Z,1.20
2022-09-14T14:15:20.321Z,1.10
2022-09-14T14:17:46.782Z,0.77
2022-09-14T14:20:28.435Z,1.10
2022-09-14T14:22:58.259Z,1.02
2022-09-14T14:25:28.791Z,1.17
2022-09-14T14:27:59.407Z,1.00
2022-09-14T14:30:27.019Z,1.58
2022-09-14T14:32:54.868Z,1.13
2022-09-14T14:35:29.191Z,0.82
2022-09-14T14:37:55.958Z,1.15
2022-09-14T14:40:22.832Z,1.00
2022-09-14T14:42:49.962Z,1.50
2022-09-14T14:45:19.244Z,1.55
2022-09-14T14:47:50.144Z,1.60
2022-09-14T14:50:17.604Z,1.40
2022-09-14T14:52:44.033Z,1.50
2022-09-14T14:55:10.656Z,0.90
2022-09-14T14:57:38.991Z,1.02
2022-09-14T15:00:11.668Z,1.00
2022-09-14T15:02:38.101Z,1.08
2022-09-14T15:05:04.728Z,1.17
2022-09-14T15:07:33.064Z,1.15
2022-09-14T15:10:02.623Z,1.30
2022-09-14T15:12:29.070Z,1.20
2022-09-14T15:14:55.733Z,1.33
2022-09-14T15:17:22.489Z,1.15
2022-09-14T15:19:49.043Z,1.20
2022-09-14T15:22:15.563Z,1.08
2022-09-14T15:24:42.009Z,1.20
2022-09-14T15:27:08.481Z,0.98
2022-09-14T15:29:34.956Z,1.10
2022-09-14T15:32:01.527Z,1.02
2022-09-14T15:34:28.031Z,1.30
2022-09-14T15:36:54.928Z,1.30
2022-09-14T15:39:26.107Z,1.27
2022-09-14T15:41:52.647Z,1.45
2022-09-14T15:44:19.116Z,1.13
2022-09-14T15:46:47.070Z,1.40
2022-09-14T15:49:18.016Z,1.48
2022-09-14T15:51:45.219Z,1.77
2022-09-14T15:54:11.791Z,1.80
2022-09-14T15:56:38.416Z,1.88
2022-09-14T15:59:05.431Z,1.77
2022-09-14T16:01:32.474Z,1.50
2022-09-14T16:04:00.130Z,1.63
2022-09-14T16:06:27.225Z,1.65
2022-09-14T16:08:54.176Z,1.63
2022-09-14T16:11:20.955Z,1.60
2022-09-14T16:13:49.089Z,2.30
2022-09-14T16:16:16.359Z,2.25
2022-09-14T16:18:42.944Z,1.67
2022-09-14T16:21:13.643Z,1.50
2022-09-14T16:23:41.730Z,1.58
2022-09-14T16:26:10.328Z,1.85
2022-09-14T16:28:37.784Z,1.88
2022-09-14T16:31:07.457Z,1.63
2022-09-14T16:33:41.474Z,1.10
2022-09-14T16:36:09.521Z,1.50
2022-09-14T16:38:36.449Z,1.47
2022-09-14T16:41:03.333Z,1.60
2022-09-14T16:43:32.711Z,3.90
2022-09-14T16:46:02.176Z,1.43
2022-09-14T16:48:28.697Z,1.40
2022-09-14T16:50:55.481Z,1.43
2022-09-14T16:53:21.902Z,1.90
2022-09-14T16:55:48.632Z,4.47
2022-09-14T16:58:15.066Z,4.17
2022-09-14T17:00:44.253Z,4.03
2022-09-14T17:03:10.971Z,4.90
2022-09-14T17:05:37.453Z,3.03
2022-09-14T17:08:03.938Z,2.17
2022-09-14T17:10:33.047Z,1.70
2022-09-14T17:12:59.490Z,1.83
2022-09-14T17:15:25.913Z,1.90
2022-09-14T17:17:52.377Z,1.43
2022-09-14T17:20:18.853Z,1.60
2022-09-14T17:22:45.275Z,1.97
2022-09-14T17:25:16.199Z,1.80
2022-09-14T17:27:43.541Z,2.10
2022-09-14T17:30:10.451Z,1.53
2022-09-14T17:32:36.930Z,1.73
2022-09-14T17:35:03.756Z,1.67
2022-09-14T17:37:30.202Z,1.53
2022-09-14T17:39:56.742Z,1.80
2022-09-14T17:42:23.209Z,1.60
2022-09-14T17:44:49.629Z,1.50
2022-09-14T17:47:16.154Z,1.53
2022-09-14T17:49:42.641Z,1.50
2022-09-14T17:52:09.066Z,2.50
2022-09-14T17:54:35.598Z,1.80
2022-09-14T17:57:02.075Z,2.20
2022-09-14T17:59:28.534Z,2.13
2022-09-14T18:01:55.007Z,2.10
2022-09-14T18:04:22.157Z,1.60
2022-09-14T18:06:48.957Z,1.60
2022-09-14T18:09:20.278Z,1.53
2022-09-14T18:11:47.280Z,1.53
2022-09-14T18:14:14.571Z,1.63
2022-09-14T18:16:41.559Z,1.50
2022-09-14T18:19:08.301Z,1.87
2022-09-14T18:21:34.721Z,1.30
2022-09-14T18:24:01.307Z,1.33
2022-09-14T18:26:27.848Z,1.43
2022-09-14T18:28:56.217Z,2.30
2022-09-14T18:31:23.158Z,1.30
2022-09-14T18:33:54.170Z,1.43
2022-09-14T18:36:21.257Z,1.40
2022-09-14T18:38:48.686Z,1.08
2022-09-14T18:41:16.429Z,1.20
2022-09-14T18:43:44.307Z,1.20
2022-09-14T18:46:11.074Z,1.17
2022-09-14T18:48:38.773Z,1.10
2022-09-14T18:51:05.283Z,1.17
2022-09-14T18:53:31.989Z,1.67
2022-09-14T18:56:02.225Z,1.27
2022-09-14T18:58:29.318Z,1.17
2022-09-14T19:00:55.955Z,1.20
2022-09-14T19:03:22.452Z,1.20
2022-09-14T19:05:48.940Z,1.37
2022-09-14T19:08:15.445Z,1.10
2022-09-14T19:10:41.936Z,0.80
2022-09-14T19:13:08.534Z,1.07
2022-09-14T19:15:38.068Z,0.90
2022-09-14T19:18:04.840Z,1.07
2022-09-14T19:20:43.300Z,1.10
2022-09-14T19:23:16.277Z,1.07
2022-09-14T19:25:42.738Z,1.20
2022-09-14T19:28:09.167Z,1.30
2022-09-14T19:30:38.917Z,0.90
2022-09-14T19:33:05.331Z,1.13
2022-09-14T19:35:32.210Z,1.10
2022-09-14T19:37:58.659Z,1.13
2022-09-14T19:40:25.168Z,1.23
2022-09-14T19:42:51.936Z,1.23
2022-09-14T19:45:18.629Z,1.20
2022-09-14T19:47:45.087Z,1.20
2022-09-14T19:50:12.022Z,1.10
2022-09-14T19:52:38.550Z,1.30
2022-09-14T19:55:05.152Z,1.30
2022-09-14T19:57:31.711Z,1.10
2022-09-14T19:59:58.249Z,1.13
2022-09-14T20:02:24.796Z,0.80
2022-09-14T20:04:51.319Z,1.10
2022-09-14T20:07:17.870Z,1.10
2022-09-14T20:09:44.315Z,0.90
2022-09-14T20:12:10.743Z,0.80
2022-09-14T20:14:37.192Z,1.10
2022-09-14T20:17:03.706Z,0.87
2022-09-14T20:19:31.081Z,1.20
2022-09-14T20:21:57.745Z,1.00
2022-09-14T20:24:28.267Z,1.10
2022-09-14T20:26:55.879Z,1.20
2022-09-14T20:29:23.081Z,1.00
2022-09-14T20:31:50.163Z,1.20
2022-09-14T20:34:18.218Z,0.90
2022-09-14T20:36:44.732Z,1.00
2022-09-14T20:39:11.192Z,1.07
2022-09-14T20:41:37.773Z,1.10
2022-09-14T20:44:04.477Z,0.93
2022-09-14T20:46:35.601Z,1.20
2022-09-14T20:49:02.410Z,1.17
2022-09-14T20:51:29.088Z,1.13
2022-09-14T20:53:58.674Z,0.97
2022-09-14T20:56:26.860Z,1.30
2022-09-14T20:58:54.386Z,1.33
2022-09-14T21:01:21.893Z,1.00
2022-09-14T21:03:49.243Z,1.10
2022-09-14T21:06:18.242Z,1.00
2022-09-14T21:08:44.958Z,1.13
2022-09-14T21:11:12.867Z,1.20
2022-09-14T21:13:39.740Z,1.23
2022-09-14T21:16:14.892Z,1.10
2022-09-14T21:18:41.880Z,1.00
2022-09-14T21:21:10.255Z,1.40
2022-09-14T21:23:36.949Z,0.97
2022-09-14T21:26:04.386Z,1.07
2022-09-14T21:28:31.273Z,1.30
2022-09-14T21:31:08.084Z,0.80
2022-09-14T21:33:35.792Z,1.10
2022-09-14T21:36:05.995Z,1.30
2022-09-14T21:38:32.770Z,1.30
2022-09-14T21:40:59.261Z,1.10
2022-09-14T21:43:25.979Z,1.50
2022-09-14T21:45:52.842Z,1.30
2022-09-14T21:48:19.339Z,1.37
2022-09-14T21:50:47.493Z,1.00
2022-09-14T21:53:14.190Z,1.10
2022-09-14T21:55:40.739Z,1.20
2022-09-14T21:58:07.465Z,1.00
2022-09-14T22:00:34.132Z,1.00
2022-09-14T22:03:00.644Z,1.20
2022-09-14T22:05:27.161Z,1.43
2022-09-14T22:07:53.582Z,1.30
2022-09-14T22:10:20.040Z,1.17
2022-09-14T22:12:47.828Z,1.60
2022-09-14T22:15:14.810Z,1.27
2022-09-14T22:17:41.310Z,1.13
2022-09-14T22:20:07.905Z,1.30
2022-09-14T22:22:34.487Z,1.20
2022-09-14T22:25:00.964Z,1.30
2022-09-14T22:27:27.390Z,1.30
2022-09-14T22:29:53.896Z,1.50
2022-09-14T22:32:21.658Z,1.20
2022-09-14T22:34:50.488Z,1.43
2022-09-14T22:37:16.947Z,1.00
2022-09-14T22:39:43.427Z,1.23
2022-09-14T22:42:09.965Z,1.10
2022-09-14T22:44:36.389Z,1.27
2022-09-14T22:47:02.803Z,1.00
2022-09-14T22:49:29.352Z,0.90
2022-09-14T22:51:55.860Z,1.30
2022-09-14T22:54:22.336Z,1.33
2022-09-14T22:56:48.773Z,1.40
2022-09-14T22:59:15.191Z,1.03
2022-09-14T23:01:41.848Z,1.30
2022-09-14T23:04:11.217Z,1.03
2022-09-14T23:06:38.739Z,1.10
2022-09-14T23:09:05.909Z,1.10
2022-09-14T23:11:32.527Z,1.17
2022-09-14T23:13:59.158Z,1.37
2022-09-14T23:16:26.913Z,0.97
2022-09-14T23:18:54.230Z,1.50
2022-09-14T23:21:21.056Z,1.73
2022-09-14T23:23:52.240Z,1.60
2022-09-14T23:26:18.904Z,1.50
2022-09-14T23:28:45.360Z,1.57
2022-09-14T23:31:11.792Z,1.70
2022-09-14T23:33:38.372Z,1.40
2022-09-14T23:36:04.892Z,1.90
2022-09-14T23:38:33.758Z,2.00
2022-09-14T23:41:00.445Z,1.23
2022-09-14T23:43:26.907Z,1.70
2022-09-14T23:45:53.415Z,1.13
2022-09-14T23:48:19.829Z,1.50
2022-09-14T23:50:46.272Z,1.20
2022-09-14T23:53:12.749Z,1.57
2022-09-14T23:55:39.170Z,1.20
2022-09-14T23:58:05.770Z,1.67
